KERY

Luce County Airport

Newberry, Michigan, USA
METAR KERY 191235Z AUTO 19005KT 7SM CLR 00/M01 A2975 RMK AO2 T00001012
Observed Flight Rules
Dec-19 @ 12:35 UTC (10 minutes ago) Visual Flight Rules
Wind Visibility Clouds
190° at 5 knots 7 miles
  • Clear skies
Temperatures Readings
Current 0°C / 32°F
Dewpoint -1°C / 30°F
Humidity 93%
Altimeter 29.75" Hg
Pressure 1007 hPa
Elevation 265
METAR KERY 191235Z AUTO 19005KT 7SM CLR 00/M01 A2975 RMK AO2 T00001012
Observed Flight Rules
Dec-19 @ 12:35 UTC
(10 minutes ago)
VFR
Wind Visibility
190° at 5 knots 7 miles
Clouds
  • Clear skies
Temperature Dewpoint
0°C / 32°F -1°C / 30°F
Humidity Altimeter Pressure
93% 29.75" Hg 1007 hPa